This is the latest recevied weather packets stored in our database for station/object WMKC. If no packets are shown the sender has not sent any weather packets the latest 10 day(s).
| Time | Temp. | Humidity | Pressure | Rain* | Wind** | Luminosity | Snow |
|---|---|---|---|---|---|---|---|
| 1777990234 | 28.89° C | 74% | 1008 hPa | - | - | - | - |
| 1777979433 | 30° C | 66% | 1006 hPa | - | - | - | - |
| 1777975834 | 30.56° C | 66% | 1005 hPa | - | - | - | - |
| 1777972240 | 31.67° C | 62% | 1005 hPa | - | - | - | - |
| 1777968631 | 31.67° C | 62% | 1006 hPa | - | - | - | - |
| 1777965029 | 33.89° C | 52% | 1007 hPa | - | - | - | - |
| 1777961434 | 32.78° C | 55% | 1008 hPa | - | - | - | - |
| 1777957840 | 33.89° C | 49% | 1009 hPa | - | - | - | - |
| 1777954230 | 33.89° C | 52% | 1010 hPa | - | - | - | - |
| 1777943430 | 28.89° C | 74% | 1009 hPa | - | - | - | - |
| 1777939842 | 26.67° C | 83% | 1009 hPa | - | - | - | - |
| 1777932630 | 25.56° C | 88% | 1008 hPa | - | - | - | - |
| 1777929030 | 26.67° C | 83% | 1008 hPa | - | - | - | - |
| 1777907439 | 28.89° C | 74% | 1010 hPa | - | - | - | - |
| 1777903833 | 28.89° C | 74% | 1009 hPa | - | - | - | - |
| 1777900230 | 28.89° C | 74% | 1008 hPa | - | - | - | - |
| 1777896630 | 30° C | 70% | 1008 hPa | - | - | - | - |
| 1777893038 | 30.56° C | 66% | 1007 hPa | - | - | - | - |
| 1777889430 | 31.67° C | 59% | 1007 hPa | - | - | - | - |
| 1777885829 | 32.78° C | 55% | 1007 hPa | - | - | - | - |
| 1777882228 | 31.67° C | 59% | 1007 hPa | - | - | - | - |
| 1777878637 | 31.67° C | 59% | 1008 hPa | - | - | - | - |
| 1777875029 | 31.67° C | 59% | 1010 hPa | - | - | - | - |
| 1777871428 | 31.67° C | 55% | 1010 hPa | - | - | - | - |
| 1777867828 | 30.56° C | 66% | 1011 hPa | - | - | - | - |
* Rain since midnight (hover to see other rain measurements)
** Current wind speed in m/s (hover to see current wind gust speed)